• Join FlightAware (Why Join?)
  • Login
  • US Flag 
02:22PM EDT


 

Airport Tracker/Info


-or-


 

Live Flight TrackerFlight Track Log ✈ N7192Y ✈ 26-Apr-2013 ✈ 2G9 - KBTV

Flight Track Log - Related Links

Times and Time Zones

All times are in EDT time to prevent confusion due to time zone crossing. See the N7192Y flight status page for this flight to view local times or setup timezone preferences in your user account.

Time Position Orientation Groundspeed Altitude Reporting Facility
EDT Latitude Longitude Course Direction KTS MPH feet Rate Location/Type
09:32AM 40.0683 -78.9744 48° Northeast 112 129 3,300  Level Cleveland Center
09:33AM 40.0969 -78.9331 48° Northeast 120 138 4,300 720 Climbing Cleveland Center
09:34AM 40.1172 -78.9025 49° Northeast 114 131 5,000 360 Climbing Cleveland Center
09:35AM 40.1397 -78.8639 53° Northeast 136 157 5,100  Climbing Cleveland Center
09:36AM 40.1642 -78.8253 50° Northeast 148 170 5,100  Level Cleveland Center
09:37AM 40.1906 -78.7783 54° Northeast 147 169 5,100 -60 Level Cleveland Center
09:38AM 40.2128 -78.7397 53° Northeast 144 166 5,000 -60 Descending Cleveland Center
09:39AM 40.2414 -78.6983 48° Northeast 145 167 5,000  Level Cleveland Center
09:40AM 40.2614 -78.6594 56° Northeast 144 166 5,000  Level Cleveland Center
09:41AM 40.2878 -78.6153 52° Northeast 146 168 5,000  Level Cleveland Center
09:42AM 40.3119 -78.5708 54° Northeast 148 170 5,100  Climbing Cleveland Center
09:43AM 40.3364 -78.5322 50° Northeast 145 167 5,100 -60 Level Cleveland Center
09:44AM 40.3647 -78.4875 50° Northeast 147 169 5,000  Descending Cleveland Center
09:45AM 40.3889 -78.4433 54° Northeast 149 171 5,100  Climbing Cleveland Center
09:46AM 40.4153 -78.4014 50° Northeast 151 174 5,100  Level Cleveland Center
09:47AM 40.4394 -78.3597 53° Northeast 148 170 5,100 -60 Level Cleveland Center
09:48AM 40.4658 -78.3153 52° Northeast 144 166 5,000  Descending Cleveland Center
09:49AM 40.4919 -78.2733 51° Northeast 144 166 5,100 60 Climbing Cleveland Center
09:49AM 40.4975 -78.2556 68° East 145 167 5,100  Level New York Center
09:50AM 40.5231 -78.2144 51° Northeast 158 182 5,100  Level New York Center
09:51AM 40.5486 -78.1708 52° Northeast 158 182 5,200 360 Climbing New York Center
09:52AM 40.5697 -78.1347 52° Northeast 142 163 5,900 420 Climbing New York Center
09:53AM 40.5906 -78.1014 51° Northeast 129 148 6,100  Climbing New York Center
09:54AM 40.6142 -78.0575 55° Northeast 124 143 6,000  Descending New York Center
09:55AM 40.6394 -78.0164 51° Northeast 124 143 6,100  Climbing New York Center
09:56AM 40.6633 -77.9697 56° Northeast 135 155 6,100  Level New York Center
09:57AM 40.6889 -77.9258 52° Northeast 140 161 6,100  Level New York Center
09:58AM 40.7125 -77.8789 56° Northeast 140 161 6,100  Level New York Center
09:59AM 40.7428 -77.8272 52° Northeast 146 168 6,100  Level New York Center
10:00AM 40.7661 -77.7831 55° Northeast 146 168 6,100  Level New York Center
10:01AM 40.7919 -77.7364 54° Northeast 146 168 6,100  Level New York Center
10:02AM 40.8175 -77.6894 54° Northeast 146 168 6,100 -60 Level New York Center
10:03AM 40.8414 -77.6397 58° Northeast 146 168 6,000 -420 Descending New York Center
10:04AM 40.8692 -77.5906 53° Northeast 156 180 5,300 -420 Descending New York Center
10:05AM 40.8947 -77.5436 54° Northeast 163 188 5,200 -120 Descending New York Center
10:06AM 40.9203 -77.4967 54° Northeast 163 188 5,100 -60 Descending New York Center
10:07AM 40.9458 -77.4525 53° Northeast 163 188 5,100  Level New York Center
10:08AM 40.9694 -77.4025 58° Northeast 163 188 5,100  Level New York Center
10:09AM 40.9947 -77.3583 53° Northeast 163 188 5,100  Level New York Center
10:10AM 41.0183 -77.3111 56° Northeast 163 188 5,100  Level New York Center
10:11AM 41.0417 -77.2639 57° Northeast 163 188 5,100  Level New York Center
10:12AM 41.0672 -77.2167 54° Northeast 163 188 5,100  Level New York Center
10:13AM 41.0925 -77.1722 53° Northeast 163 188 5,100  Level New York Center
10:14AM 41.1178 -77.1278 53° Northeast 156 180 5,100  Level New York Center
10:15AM 41.1392 -77.0803 59° Northeast 156 180 5,100  Level New York Center
10:16AM 41.1644 -77.0356 53° Northeast 156 180 5,100  Level New York Center
10:17AM 41.1897 -76.9883 55° Northeast 156 180 5,100  Level New York Center
10:18AM 41.2131 -76.9408 57° Northeast 156 180 5,100  Level New York Center
10:19AM 41.2383 -76.8964 53° Northeast 156 180 5,100  Level New York Center
10:20AM 41.2617 -76.8486 57° Northeast 151 174 5,100  Level New York Center
10:21AM 41.2847 -76.8039 56° Northeast 151 174 5,100  Level New York Center
10:22AM 41.3078 -76.7589 56° Northeast 151 174 5,100  Level New York Center
10:23AM 41.3311 -76.7139 55° Northeast 151 174 5,100  Level New York Center
10:24AM 41.3564 -76.6664 55° Northeast 151 174 5,100  Level New York Center
10:25AM 41.3769 -76.6267 55° Northeast 151 174 5,100  Level New York Center
10:26AM 41.4000 -76.5817 56° Northeast 146 168 5,100  Level New York Center
10:27AM 41.4253 -76.5314 56° Northeast 146 168 5,100  Level New York Center
10:28AM 41.4506 -76.4867 53° Northeast 146 168 5,100  Level New York Center
10:29AM 41.4736 -76.4414 56° Northeast 146 168 5,100  Level New York Center
10:30AM 41.4942 -76.4017 55° Northeast 146 168 5,100  Level New York Center
10:31AM 41.5194 -76.3483 58° Northeast 146 168 5,100  Level New York Center
10:32AM 41.5444 -76.3061 52° Northeast 141 162 5,100  Level New York Center
10:33AM 41.5675 -76.2553 59° Northeast 141 162 5,100  Level New York Center
10:34AM 41.5903 -76.2156 53° Northeast 141 162 5,100  Level New York Center
10:35AM 41.6131 -76.1703 56° Northeast 141 162 5,100  Level New York Center
10:36AM 41.6383 -76.1194 56° Northeast 141 162 5,100  Level New York Center
10:37AM 41.6611 -76.0742 56° Northeast 141 162 5,100  Level New York Center
10:40AM 41.6955 -75.9600 55° Northeast  Level FlightAware Approximate
10:47AM 41.8672 -75.6301 55° Northeast  Level FlightAware Approximate
10:48AM 41.8917 -75.5828 55° Northeast  Level FlightAware Approximate
10:49AM 41.9163 -75.5356 55° Northeast  Level FlightAware Approximate
10:50AM 41.9409 -75.4884 55° Northeast  Level FlightAware Approximate
10:51AM 41.9655 -75.4413 55° Northeast  Level FlightAware Approximate
10:52AM 41.9901 -75.3941 55° Northeast  Level FlightAware Approximate
10:52AM 42.0097 -75.3908 55° Northeast 148 170 5,200  Level Boston Center
10:53AM 42.0147 -75.3468 55° Northeast  Level FlightAware Approximate
10:53AM 42.0275 -75.3497 60° Northeast 155 178 5,900  Level Boston Center
10:54AM 42.0393 -75.2995 55° Northeast  Level FlightAware Approximate
10:54AM 42.0492 -75.3117 53° Northeast 132 152 6,100  Level Boston Center
10:55AM 42.0638 -75.2522 55° Northeast  Level FlightAware Approximate
10:55AM 42.0714 -75.2650 57° Northeast 132 152 6,100  Level Boston Center
10:56AM 42.0883 -75.2048 55° Northeast  Level FlightAware Approximate
10:56AM 42.0889 -75.2294 56° Northeast 144 166 6,100  Level Boston Center
10:57AM 42.1128 -75.1574 55° Northeast  Level FlightAware Approximate
10:57AM 42.1131 -75.1800 57° Northeast 151 174 6,100  Level Boston Center
10:58AM 42.1389 -75.1392 50° Northeast 151 174 6,100  Level Boston Center
10:59AM 42.1656 -75.0789 59° Northeast 152 175 6,100  Level Boston Center
11:00AM 42.1894 -75.0350 54° Northeast 147 169 6,100  Level Boston Center
11:01AM 42.2136 -74.9825 58° Northeast 147 169 6,100  Level Boston Center
11:02AM 42.2375 -74.9331 57° Northeast 153 176 6,100  Level Boston Center
11:03AM 42.2614 -74.8864 55° Northeast 153 176 6,100  Level Boston Center
11:04AM 42.2833 -74.8453 54° Northeast 148 170 6,100  Level Boston Center
11:05AM 42.3094 -74.7900 57° Northeast 153 176 6,100  Level Boston Center
11:06AM 42.3333 -74.7347 60° Northeast 153 176 6,100  Level Boston Center
11:07AM 42.3550 -74.6961 53° Northeast 158 182 6,100  Level Boston Center
11:08AM 42.3792 -74.6381 61° Northeast 165 190 6,100  Level Boston Center
11:09AM 42.4008 -74.5994 53° Northeast 156 180 6,100  Level Boston Center
11:10AM 42.4289 -74.5386 58° Northeast 165 190 6,100  Level Boston Center
11:11AM 42.4486 -74.4942 59° Northeast 159 183 6,100  Level Boston Center
11:12AM 42.4722 -74.4500 54° Northeast 157 181 6,100  Level Boston Center
11:13AM 42.4961 -74.3972 58° Northeast 156 180 6,100  Level Boston Center
11:14AM 42.5242 -74.3472 53° Northeast 159 183 6,100  Level Boston Center
11:15AM 42.5456 -74.3028 57° Northeast 161 185 6,100  Level Boston Center
11:16AM 42.5672 -74.2528 60° Northeast 161 185 6,100  Level Boston Center
11:17AM 42.5908 -74.2083 54° Northeast 159 183 6,100  Level Boston Center
11:17AM 42.5953 -74.1944 67° East 165 190 6,100  Level Boston Center
11:18AM 42.6147 -74.1556 56° Northeast 160 184 6,100  Level Boston Center
11:18AM 42.6211 -74.1414 58° Northeast 165 190 6,100  Level Boston Center
11:19AM 42.6383 -74.1025 59° Northeast 159 183 6,100  Level Boston Center
11:19AM 42.6425 -74.0942 56° Northeast 165 190 6,100  Level Boston Center
11:20AM 42.6661 -74.0525 52° Northeast 158 182 6,100  Level Boston Center
11:21AM 42.6942 -73.9908 58° Northeast 160 184 6,100  Level Boston Center
11:22AM 42.7133 -73.9492 58° Northeast 159 183 6,100  Level Boston Center
11:23AM 42.7369 -73.8986 58° Northeast 157 181 6,100  Level Boston Center
11:24AM 42.7647 -73.8456 54° Northeast 159 183 6,100 120 Level Boston Center
11:25AM 42.7842 -73.7953 62° Northeast 155 178 6,400 420 Climbing Boston Center
11:26AM 42.8097 -73.7506 52° Northeast 138 159 7,000 360 Climbing Boston Center
11:27AM 42.8311 -73.7028 59° Northeast 150 173 7,200  Climbing Boston Center
11:28AM 42.8544 -73.6494 59° Northeast 170 196 7,100 -60 Descending Boston Center
11:29AM 42.8822 -73.5906 57° Northeast 173 199 7,100  Level Boston Center
11:30AM 42.9078 -73.5372 57° Northeast 166 191 7,100  Level Boston Center
11:31AM 42.9292 -73.4919 57° Northeast 164 189 7,100  Level Boston Center
11:32AM 42.9567 -73.4331 57° Northeast 167 192 7,100  Level Boston Center
11:33AM 42.9822 -73.3822 55° Northeast 167 192 7,100  Level Boston Center
11:34AM 43.0053 -73.3458 49° Northeast 191 220 7,100  Level Boston Center
11:35AM 43.0469 -73.3464 359° North 177 204 7,100  Level Boston Center
11:36AM 43.0886 -73.3442 North 170 196 7,100  Level Boston Center
11:37AM 43.1389 -73.3419 North 165 190 7,100  Level Boston Center
11:38AM 43.1806 -73.3428 359° North 160 184 7,100  Level Boston Center
11:39AM 43.2306 -73.3406 North 160 184 7,100  Level Boston Center
11:40AM 43.2825 -73.3356 North 160 184 7,100  Level Boston Center
11:41AM 43.3222 -73.3333 North 160 184 7,100  Level Boston Center
11:42AM 43.3722 -73.3311 North 155 178 7,100  Level Boston Center
11:43AM 43.4161 -73.3319 359° North 167 192 7,100  Level Boston Center
11:44AM 43.4639 -73.3269 North 167 192 7,100  Level Boston Center
11:45AM 43.5097 -73.3275 359° North 167 192 7,100  Level Boston Center
11:46AM 43.5536 -73.3225 North 167 192 7,100  Level Boston Center
11:47AM 43.5994 -73.3231 359° North 162 186 7,100  Level Boston Center
11:48AM 43.6453 -73.3181 North 162 186 7,100  Level Boston Center
11:49AM 43.6892 -73.3186 359° North 162 186 7,100  Level Boston Center
11:50AM 43.7350 -73.3078 10° North 157 181 7,100  Level Boston Center
11:51AM 43.7850 -73.3000 North 164 189 7,100  Level Boston Center
11:52AM 43.8289 -73.2919 North 157 181 7,100  Level Boston Center
11:53AM 43.8747 -73.2839 North 157 181 7,100  Level Boston Center
11:54AM 43.9208 -73.2758 North 157 181 7,100  Level Boston Center
11:55AM 43.9667 -73.2681 North 157 181 7,100 -300 Level Boston Center
11:56AM 44.0167 -73.2542 11° North 167 192 6,500 -720 Descending Boston Center
11:57AM 44.0711 -73.2461 North 179 206 5,700 -840 Descending Boston Center
11:58AM 44.1272 -73.2383 North 196 226 4,900 -780 Descending Boston Center
11:59AM 44.1769 -73.2708 335° Northwest 191 220 4,200 -420 Descending Boston Center
12:00PM 44.2208 -73.2744 357° North 177 204 4,100 -60 Descending Boston Center
12:01PM 44.2628 -73.2344 34° Northeast 147 169 4,100  Level Boston Center
12:02PM 44.2942 -73.2028 36° Northeast 152 175 4,100  Level Boston Center
12:03PM 44.3278 -73.1714 34° Northeast 146 168 4,100 -300 Level Boston Center
12:04PM 44.3531 -73.1339 47° Northeast 135 155 3,500 -600 Descending Boston Center
12:06PM 44.4058 -73.1610 340° North  Level FlightAware Approximate
12:13PM 44.4667 -73.1500 13° North  Level FlightAware Approximate
12:14PM 44.4719 -73.1533 13° North  Level Estimated
12:15PM 44.4667 -73.1500 13° North  Level FlightAware Approximate
12:16PM 44.4719 -73.1533 13° North  Level Estimated